createdAt,value
2022-11-03T00:02:01.586Z,63.44
2022-11-03T00:04:32.395Z,62.58
2022-11-03T00:07:03.056Z,61.32
2022-11-03T00:09:34.296Z,60.67
2022-11-03T00:12:05.336Z,59.25
2022-11-03T00:14:35.947Z,61.46
2022-11-03T00:17:06.535Z,64.81
2022-11-03T00:19:37.199Z,62.84
2022-11-03T00:22:07.856Z,60.45
2022-11-03T00:24:38.480Z,60.23
2022-11-03T00:27:09.120Z,59.14
2022-11-03T00:29:39.898Z,60.26
2022-11-03T00:32:10.524Z,64.47
2022-11-03T00:34:41.562Z,64.84
2022-11-03T00:37:12.156Z,63.97
2022-11-03T00:39:42.789Z,63.36
2022-11-03T00:42:13.377Z,60.83
2022-11-03T00:44:44.149Z,59.09
2022-11-03T00:47:17.768Z,61.56
2022-11-03T00:49:50.766Z,64.94
2022-11-03T00:52:21.569Z,63.55
2022-11-03T00:54:55.195Z,62.15
2022-11-03T00:57:26.017Z,61.39
2022-11-03T00:59:56.879Z,60.06
2022-11-03T01:02:27.569Z,59.52
2022-11-03T01:05:15.674Z,60.68
2022-11-03T01:07:46.475Z,65.77
2022-11-03T01:10:17.180Z,64.90
2022-11-03T01:12:48.530Z,60.49
2022-11-03T01:15:19.677Z,60.05
2022-11-03T01:17:50.107Z,64.30
2022-11-03T01:20:21.224Z,64.98
2022-11-03T01:22:51.770Z,63.14
2022-11-03T01:25:23.270Z,61.48
2022-11-03T01:27:53.764Z,61.37
2022-11-03T01:30:24.639Z,60.69
2022-11-03T01:32:55.322Z,60.02
2022-11-03T01:35:25.862Z,59.34
2022-11-03T01:37:57.672Z,60.66
2022-11-03T01:40:28.371Z,65.55
2022-11-03T01:43:12.416Z,64.81
2022-11-03T01:45:43.125Z,62.60
2022-11-03T01:48:14.192Z,62.47
2022-11-03T01:50:46.345Z,60.49
2022-11-03T01:53:17.787Z,60.41
2022-11-03T01:55:50.764Z,61.24
2022-11-03T01:58:23.434Z,60.60
2022-11-03T02:00:56.156Z,59.44
2022-11-03T02:03:27.677Z,59.72
2022-11-03T02:05:58.364Z,63.78
2022-11-03T02:08:30.257Z,64.17
2022-11-03T02:11:20.852Z,62.09
2022-11-03T02:13:51.395Z,61.05
2022-11-03T02:16:24.827Z,61.25
2022-11-03T02:18:55.877Z,60.28
2022-11-03T02:21:28.224Z,60.02
2022-11-03T02:24:02.561Z,59.61
2022-11-03T02:26:33.276Z,63.50
2022-11-03T02:29:04.001Z,66.03
2022-11-03T02:31:36.792Z,64.73
2022-11-03T02:34:09.643Z,64.17
2022-11-03T02:36:43.253Z,63.38
2022-11-03T02:39:15.620Z,62.44
2022-11-03T02:41:48.143Z,61.38
2022-11-03T02:44:20.161Z,60.48
2022-11-03T02:46:54.063Z,60.27
2022-11-03T02:49:24.588Z,60.41
2022-11-03T02:52:01.917Z,60.69
2022-11-03T02:54:33.526Z,60.38
2022-11-03T02:57:07.044Z,60.42
2022-11-03T02:59:40.643Z,59.80
2022-11-03T03:02:13.580Z,58.17
2022-11-03T03:04:46.594Z,59.53
2022-11-03T03:07:18.900Z,61.94
2022-11-03T03:09:54.976Z,66.46
2022-11-03T03:12:30.758Z,65.86
2022-11-03T03:15:11.091Z,63.25
2022-11-03T03:17:46.175Z,61.52
2022-11-03T03:20:21.813Z,60.49
2022-11-03T03:22:59.272Z,60.88
2022-11-03T03:25:35.613Z,61.26
2022-11-03T03:28:09.888Z,60.89
2022-11-03T03:30:41.749Z,60.22
2022-11-03T03:33:13.649Z,59.80
2022-11-03T03:35:45.784Z,59.37
2022-11-03T03:38:27.085Z,60.18
2022-11-03T03:40:58.951Z,65.55
2022-11-03T03:43:30.376Z,65.60
2022-11-03T03:46:04.066Z,64.40
2022-11-03T03:48:32.826Z,63.66
2022-11-03T03:51:14.162Z,61.33
2022-11-03T03:53:51.108Z,60.24
2022-11-03T03:56:25.019Z,59.21
2022-11-03T03:58:55.786Z,61.39
2022-11-03T04:01:26.433Z,65.06
2022-11-03T04:04:01.212Z,64.26
2022-11-03T04:06:40.940Z,63.34
2022-11-03T04:09:16.206Z,62.07
2022-11-03T04:12:08.951Z,61.20
2022-11-03T04:14:57.703Z,60.11
2022-11-03T04:17:45.953Z,60.11
2022-11-03T04:20:34.438Z,60.58
2022-11-03T04:23:05.082Z,60.34
2022-11-03T04:25:36.282Z,60.46
2022-11-03T04:28:09.794Z,60.02
2022-11-03T04:30:53.382Z,59.11
2022-11-03T04:33:27.319Z,59.66
2022-11-03T04:35:59.286Z,64.49
2022-11-03T04:38:34.794Z,64.52
2022-11-03T04:41:08.351Z,63.26
2022-11-03T04:43:37.211Z,62.20
2022-11-03T04:46:10.528Z,61.18
2022-11-03T04:48:41.160Z,60.11
2022-11-03T04:51:17.495Z,59.35
2022-11-03T04:53:50.533Z,57.88
2022-11-03T04:56:22.218Z,60.11
2022-11-03T04:58:53.301Z,65.29
2022-11-03T05:01:24.963Z,65.84
2022-11-03T05:03:59.766Z,63.14
2022-11-03T05:06:31.051Z,60.88
2022-11-03T05:09:03.376Z,59.73
2022-11-03T05:11:36.057Z,58.85
2022-11-03T05:14:14.347Z,60.28
2022-11-03T05:16:45.417Z,65.34
2022-11-03T05:19:16.819Z,65.91
2022-11-03T05:21:51.229Z,63.57
2022-11-03T05:24:25.986Z,62.35
2022-11-03T05:26:57.598Z,61.51
2022-11-03T05:29:31.262Z,60.72
2022-11-03T05:32:11.762Z,58.15
2022-11-03T05:34:44.398Z,59.78
2022-11-03T05:37:26.759Z,65.01
2022-11-03T05:39:59.547Z,64.94
2022-11-03T05:42:36.154Z,63.24
2022-11-03T05:45:23.793Z,61.33
2022-11-03T05:47:55.458Z,60.22
2022-11-03T05:50:26.472Z,59.68
2022-11-03T05:53:05.004Z,57.86
2022-11-03T05:55:37.148Z,59.71
2022-11-03T05:58:14.784Z,63.64
2022-11-03T06:00:48.790Z,66.18
2022-11-03T06:03:22.773Z,63.12
2022-11-03T06:05:54.009Z,61.13
2022-11-03T06:08:27.128Z,60.13
2022-11-03T06:10:59.288Z,59.83
2022-11-03T06:13:32.059Z,59.55
2022-11-03T06:16:05.519Z,58.24
2022-11-03T06:18:37.616Z,61.93
2022-11-03T06:21:10.724Z,64.56
2022-11-03T06:23:46.403Z,62.41
2022-11-03T06:26:25.514Z,61.33
2022-11-03T06:28:57.034Z,60.71
2022-11-03T06:31:28.688Z,60.74
2022-11-03T06:33:59.761Z,60.57
2022-11-03T06:36:37.952Z,59.84
2022-11-03T06:39:12.877Z,59.02
2022-11-03T06:41:43.268Z,61.84
2022-11-03T06:44:21.164Z,64.76
2022-11-03T06:46:51.527Z,61.94
2022-11-03T06:49:28.861Z,61.15
2022-11-03T06:52:00.061Z,60.79
2022-11-03T06:54:31.733Z,60.16
2022-11-03T06:57:02.104Z,60.37
2022-11-03T06:59:32.765Z,60.24
2022-11-03T07:02:03.422Z,60.29
2022-11-03T07:04:34.375Z,59.55
2022-11-03T07:07:05.487Z,57.75
2022-11-03T07:09:36.219Z,59.09
2022-11-03T07:12:14.736Z,62.26
2022-11-03T07:14:45.788Z,64.10
2022-11-03T07:17:17.730Z,62.18
2022-11-03T07:19:48.770Z,60.39
2022-11-03T07:22:21.172Z,58.38
2022-11-03T07:24:53.786Z,60.72
2022-11-03T07:27:25.416Z,64.71
2022-11-03T07:29:58.871Z,63.41
2022-11-03T07:32:30.755Z,61.78
2022-11-03T07:35:04.154Z,61.58
2022-11-03T07:37:35.639Z,60.80
2022-11-03T07:40:07.145Z,59.79
2022-11-03T07:42:37.654Z,59.66
2022-11-03T07:45:32.375Z,58.52
2022-11-03T07:48:04.679Z,58.77
2022-11-03T07:50:35.566Z,63.70
2022-11-03T07:53:10.204Z,64.97
2022-11-03T07:55:41.065Z,62.44
2022-11-03T07:58:22.067Z,58.49
2022-11-03T08:00:57.592Z,59.93
2022-11-03T08:03:29.269Z,64.42
2022-11-03T08:06:00.011Z,65.21
2022-11-03T08:08:31.400Z,62.96
2022-11-03T08:11:06.602Z,59.85
2022-11-03T08:13:37.206Z,59.08
2022-11-03T08:16:08.633Z,60.38
2022-11-03T08:18:39.138Z,63.55
2022-11-03T08:21:14.454Z,61.99
2022-11-03T08:23:54.429Z,60.59
2022-11-03T08:26:29.999Z,60.14
2022-11-03T08:29:00.569Z,56.93
2022-11-03T08:31:35.810Z,56.97
2022-11-03T08:34:06.718Z,60.79
2022-11-03T08:36:37.455Z,64.28
2022-11-03T08:39:07.954Z,63.30
2022-11-03T08:41:38.579Z,59.62
2022-11-03T08:44:08.980Z,58.17
2022-11-03T08:46:39.780Z,58.53
2022-11-03T08:49:10.244Z,60.28
2022-11-03T08:51:46.659Z,61.98
2022-11-03T08:54:17.437Z,63.08
2022-11-03T08:56:52.209Z,60.21
2022-11-03T08:59:28.105Z,56.55
2022-11-03T09:01:59.708Z,56.77
2022-11-03T09:04:34.338Z,59.94
2022-11-03T09:07:10.244Z,60.84
2022-11-03T09:12:31.889Z,64.74
2022-11-03T09:15:02.492Z,60.28
2022-11-03T09:17:33.257Z,57.37
2022-11-03T09:20:09.866Z,56.86
2022-11-03T09:22:41.580Z,57.11
2022-11-03T09:25:12.152Z,59.43
2022-11-03T09:27:47.368Z,59.80
2022-11-03T09:30:19.186Z,62.33
2022-11-03T09:32:49.731Z,60.71
2022-11-03T09:35:21.254Z,56.46
2022-11-03T09:37:52.025Z,56.12
2022-11-03T09:40:27.733Z,58.92
2022-11-03T09:43:03.348Z,59.43
2022-11-03T09:45:34.199Z,60.60
2022-11-03T09:48:05.542Z,62.68
2022-11-03T09:50:36.475Z,59.75
2022-11-03T09:53:07.579Z,57.02
2022-11-03T09:55:38.807Z,57.89
2022-11-03T09:58:14.213Z,58.33
2022-11-03T10:00:45.309Z,61.09
2022-11-03T10:03:18.557Z,61.55
2022-11-03T10:05:49.367Z,61.22
2022-11-03T10:08:23.482Z,61.85
2022-11-03T10:10:54.602Z,61.10
2022-11-03T10:13:28.233Z,62.55
2022-11-03T10:15:58.842Z,62.79
2022-11-03T10:18:29.985Z,58.80
2022-11-03T10:21:03.801Z,56.00
2022-11-03T10:23:34.865Z,55.53
2022-11-03T10:26:09.771Z,56.73
2022-11-03T10:28:40.684Z,58.62
2022-11-03T10:31:21.028Z,59.60
2022-11-03T10:33:55.184Z,59.85
2022-11-03T10:36:26.976Z,60.46
2022-11-03T10:38:57.843Z,60.59
2022-11-03T10:41:29.625Z,59.97
2022-11-03T10:44:04.911Z,60.82
2022-11-03T10:46:50.224Z,60.84
2022-11-03T10:49:21.954Z,59.92
2022-11-03T10:51:53.865Z,60.49
2022-11-03T10:54:25.936Z,60.34
2022-11-03T10:56:56.706Z,60.40
2022-11-03T10:59:32.256Z,59.64
2022-11-03T11:02:03.214Z,59.42
2022-11-03T11:04:34.693Z,59.94
2022-11-03T11:07:13.489Z,60.10
2022-11-03T11:09:44.044Z,59.58
2022-11-03T11:12:18.952Z,58.82
2022-11-03T11:14:56.964Z,58.34
2022-11-03T11:17:47.037Z,58.47
2022-11-03T11:20:43.482Z,57.97
2022-11-03T11:23:31.109Z,57.87
2022-11-03T11:26:15.371Z,58.13
2022-11-03T11:28:46.516Z,57.82
2022-11-03T11:31:31.024Z,58.02
2022-11-03T11:34:18.771Z,57.91
2022-11-03T11:37:11.440Z,57.02
2022-11-03T11:39:47.929Z,56.85
2022-11-03T11:42:20.434Z,56.94
2022-11-03T11:45:02.032Z,57.08
2022-11-03T11:47:34.322Z,56.31
2022-11-03T11:50:16.539Z,55.46
2022-11-03T11:52:48.809Z,56.11
2022-11-03T11:55:20.485Z,55.32
2022-11-03T11:57:51.742Z,55.90
2022-11-03T12:00:24.819Z,55.92
2022-11-03T12:02:56.681Z,55.89
2022-11-03T12:05:28.505Z,56.03
2022-11-03T12:07:59.676Z,56.28
2022-11-03T12:10:31.361Z,55.91
2022-11-03T12:13:02.121Z,55.58
2022-11-03T12:15:50.304Z,55.72
2022-11-03T12:18:40.689Z,55.60
2022-11-03T12:21:14.279Z,55.51
2022-11-03T12:23:50.140Z,55.08
2022-11-03T12:26:40.964Z,55.22
2022-11-03T12:29:15.836Z,55.33
2022-11-03T12:31:48.143Z,55.01
2022-11-03T12:34:23.081Z,55.06
2022-11-03T12:36:56.379Z,55.38
2022-11-03T12:39:27.309Z,55.55
2022-11-03T12:41:58.447Z,55.72
2022-11-03T12:44:29.146Z,55.68
2022-11-03T12:46:59.958Z,55.34
2022-11-03T12:49:30.683Z,55.17
2022-11-03T12:52:08.318Z,55.23
2022-11-03T12:54:39.765Z,55.49
2022-11-03T12:57:10.250Z,54.95
2022-11-03T12:59:41.262Z,54.83
2022-11-03T13:02:16.772Z,54.79
2022-11-03T13:04:48.974Z,54.97
2022-11-03T13:07:26.617Z,55.18
2022-11-03T13:10:05.053Z,55.42
2022-11-03T13:12:41.764Z,55.33
2022-11-03T13:15:13.703Z,55.42
2022-11-03T13:18:12.399Z,55.10
2022-11-03T13:20:41.185Z,52.55
2022-11-03T13:23:11.740Z,51.38
2022-11-03T13:25:43.386Z,49.86
2022-11-03T13:28:13.897Z,47.99
2022-11-03T13:30:44.916Z,46.90
2022-11-03T13:33:15.493Z,45.55
2022-11-03T13:35:46.449Z,43.95
2022-11-03T13:38:17.137Z,44.04
2022-11-03T13:40:59.217Z,43.93
2022-11-03T13:43:34.172Z,43.73
2022-11-03T13:46:05.366Z,43.24
2022-11-03T13:51:36.464Z,43.17
2022-11-03T14:00:01.870Z,43.46
2022-11-03T14:05:34.927Z,43.94
2022-11-03T14:08:06.611Z,44.07
2022-11-03T14:10:37.375Z,44.70
2022-11-03T14:13:08.885Z,45.27
2022-11-03T14:15:39.904Z,45.70
2022-11-03T14:18:20.570Z,46.32
2022-11-03T14:21:00.524Z,47.23
2022-11-03T14:23:40.218Z,48.25
2022-11-03T14:26:40.225Z,49.29
2022-11-03T14:29:11.002Z,50.15
2022-11-03T14:31:41.442Z,51.03
2022-11-03T14:34:12.069Z,51.68
2022-11-03T14:36:42.694Z,52.17
2022-11-03T14:39:13.539Z,52.38
2022-11-03T14:42:01.736Z,52.65
2022-11-03T14:44:32.629Z,53.09
2022-11-03T14:47:03.771Z,53.59
2022-11-03T14:49:35.289Z,53.88
2022-11-03T14:52:10.792Z,54.14
2022-11-03T14:54:52.265Z,54.47
2022-11-03T14:57:23.030Z,54.85
2022-11-03T14:59:53.958Z,55.04
2022-11-03T15:02:25.063Z,55.45
2022-11-03T15:04:56.523Z,55.73
2022-11-03T15:07:32.396Z,56.05
2022-11-03T15:10:03.092Z,56.47
2022-11-03T15:12:33.824Z,56.74
2022-11-03T15:15:04.860Z,57.21
2022-11-03T15:17:35.614Z,57.47
2022-11-03T15:20:07.182Z,57.89
2022-11-03T15:25:32.192Z,58.58
2022-11-03T15:28:04.877Z,58.96
2022-11-03T15:30:35.997Z,59.21
2022-11-03T15:33:06.911Z,59.43
2022-11-03T15:35:38.055Z,59.63
2022-11-03T15:38:09.213Z,59.65
2022-11-03T15:40:40.396Z,59.93
2022-11-03T15:43:11.203Z,60.29
2022-11-03T15:45:42.242Z,60.35
2022-11-03T15:48:13.111Z,60.62
2022-11-03T15:50:43.902Z,60.84
2022-11-03T15:53:14.546Z,61.02
2022-11-03T15:55:45.158Z,61.19
2022-11-03T15:58:15.613Z,61.28
2022-11-03T16:00:46.438Z,61.53
2022-11-03T16:03:17.226Z,61.88
2022-11-03T16:05:48.052Z,61.95
2022-11-03T16:08:18.804Z,62.17
2022-11-03T16:10:54.709Z,62.26
2022-11-03T16:13:28.047Z,61.92
2022-11-03T16:15:58.642Z,59.58
2022-11-03T16:18:29.345Z,57.41
2022-11-03T16:20:59.871Z,58.45
2022-11-03T16:23:34.802Z,59.71
2022-11-03T16:26:05.792Z,60.22
2022-11-03T16:28:36.265Z,60.88
2022-11-03T16:31:07.520Z,61.24
2022-11-03T16:33:37.944Z,61.54
2022-11-03T16:36:09.383Z,61.96
2022-11-03T16:38:39.847Z,61.89
2022-11-03T16:41:10.658Z,62.20
2022-11-03T16:43:41.279Z,62.32
2022-11-03T16:46:12.332Z,62.20
2022-11-03T16:48:42.953Z,58.15
2022-11-03T16:51:14.000Z,56.81
2022-11-03T16:53:45.040Z,57.70
2022-11-03T16:56:15.895Z,58.94
2022-11-03T16:58:46.399Z,59.54
2022-11-03T17:01:21.409Z,60.32
2022-11-03T17:03:54.142Z,61.04
2022-11-03T17:06:24.711Z,61.27
2022-11-03T17:09:00.037Z,61.86
2022-11-03T17:11:37.109Z,62.49
2022-11-03T17:14:08.846Z,60.99
2022-11-03T17:16:42.445Z,57.77
2022-11-03T17:19:11.845Z,58.18
2022-11-03T17:21:43.474Z,59.54
2022-11-03T17:24:14.004Z,60.35
2022-11-03T17:26:51.603Z,61.43
2022-11-03T17:29:23.874Z,61.95
2022-11-03T17:32:00.162Z,62.49
2022-11-03T17:34:34.858Z,60.52
2022-11-03T17:37:06.003Z,57.70
2022-11-03T17:39:38.170Z,58.82
2022-11-03T17:42:16.074Z,60.32
2022-11-03T17:44:51.871Z,61.72
2022-11-03T17:47:27.595Z,62.48
2022-11-03T17:50:02.946Z,62.59
2022-11-03T17:52:38.098Z,61.29
2022-11-03T17:55:16.718Z,57.16
2022-11-03T17:57:47.773Z,56.79
2022-11-03T18:00:21.007Z,58.27
2022-11-03T18:02:52.763Z,60.89
2022-11-03T18:05:26.824Z,61.58
2022-11-03T18:07:58.114Z,64.26
2022-11-03T18:10:30.288Z,62.74
2022-11-03T18:13:17.556Z,58.82
2022-11-03T18:15:49.690Z,57.34
2022-11-03T18:18:22.758Z,59.10
2022-11-03T18:20:54.104Z,60.62
2022-11-03T18:23:25.397Z,63.13
2022-11-03T18:25:55.855Z,62.30
2022-11-03T18:28:26.337Z,58.83
2022-11-03T18:30:57.752Z,57.33
2022-11-03T18:33:30.739Z,58.48
2022-11-03T18:36:03.105Z,60.96
2022-11-03T18:38:36.237Z,61.35
2022-11-03T18:41:28.129Z,62.93
2022-11-03T18:43:59.214Z,60.97
2022-11-03T18:46:30.728Z,58.56
2022-11-03T18:49:01.459Z,57.73
2022-11-03T18:51:31.964Z,59.84
2022-11-03T18:54:02.544Z,61.02
2022-11-03T18:56:35.841Z,62.93
2022-11-03T18:59:15.583Z,61.54
2022-11-03T19:01:46.902Z,59.10
2022-11-03T19:04:18.042Z,56.67
2022-11-03T19:06:52.145Z,58.93
2022-11-03T19:09:24.955Z,61.06
2022-11-03T19:11:56.752Z,62.89
2022-11-03T19:14:32.965Z,62.67
2022-11-03T19:17:21.960Z,58.49
2022-11-03T19:19:59.904Z,59.28
2022-11-03T19:22:31.058Z,60.98
2022-11-03T19:25:01.740Z,62.79
2022-11-03T19:27:38.947Z,62.53
2022-11-03T19:30:12.860Z,58.57
2022-11-03T19:32:48.919Z,58.53
2022-11-03T19:35:27.317Z,60.57
2022-11-03T19:38:04.256Z,61.74
2022-11-03T19:41:00.304Z,63.66
2022-11-03T19:43:34.627Z,61.24
2022-11-03T19:46:06.224Z,58.70
2022-11-03T19:48:41.115Z,58.65
2022-11-03T19:51:13.677Z,60.66
2022-11-03T19:53:47.257Z,62.86
2022-11-03T19:56:19.670Z,62.86
2022-11-03T19:58:50.196Z,58.77
2022-11-03T20:01:21.487Z,57.74
2022-11-03T20:03:56.953Z,59.39
2022-11-03T20:06:28.169Z,60.90
2022-11-03T20:08:58.794Z,63.06
2022-11-03T20:11:29.848Z,62.27
2022-11-03T20:14:00.477Z,60.00
2022-11-03T20:16:32.132Z,57.41
2022-11-03T20:19:03.367Z,57.86
2022-11-03T20:21:34.648Z,61.19
2022-11-03T20:24:05.966Z,63.57
2022-11-03T20:26:36.704Z,61.59
2022-11-03T20:29:12.502Z,58.98
2022-11-03T20:31:43.712Z,59.14
2022-11-03T20:34:15.852Z,60.94
2022-11-03T20:36:48.128Z,63.51
2022-11-03T20:39:19.947Z,61.67
2022-11-03T20:41:52.459Z,59.67
2022-11-03T20:44:23.958Z,57.89
2022-11-03T20:46:54.650Z,60.73
2022-11-03T20:49:25.336Z,62.96
2022-11-03T20:51:56.628Z,61.17
2022-11-03T20:54:27.248Z,60.82
2022-11-03T20:56:57.878Z,57.51
2022-11-03T20:59:32.103Z,57.14
2022-11-03T21:02:12.177Z,59.63
2022-11-03T21:04:41.345Z,61.18
2022-11-03T21:07:15.688Z,61.18
2022-11-03T21:09:46.292Z,65.41
2022-11-03T21:12:18.759Z,63.70
2022-11-03T21:15:03.224Z,61.54
2022-11-03T21:17:51.774Z,57.99
2022-11-03T21:20:22.707Z,57.93
2022-11-03T21:22:54.429Z,59.32
2022-11-03T21:25:25.532Z,62.61
2022-11-03T21:27:56.242Z,65.10
2022-11-03T21:30:26.775Z,62.69
2022-11-03T21:33:02.424Z,60.94
2022-11-03T21:35:38.289Z,57.55
2022-11-03T21:38:09.917Z,57.94
2022-11-03T21:40:45.685Z,60.00
2022-11-03T21:43:34.307Z,63.39
2022-11-03T21:46:05.876Z,63.22
2022-11-03T21:48:54.049Z,61.48
2022-11-03T21:51:25.283Z,57.87
2022-11-03T21:53:56.208Z,58.95
2022-11-03T21:56:30.792Z,61.56
2022-11-03T21:59:01.550Z,64.15
2022-11-03T22:01:32.103Z,62.89
2022-11-03T22:04:03.264Z,61.45
2022-11-03T22:06:33.689Z,58.45
2022-11-03T22:09:08.487Z,59.77
2022-11-03T22:11:39.321Z,61.06
2022-11-03T22:14:11.944Z,64.23
2022-11-03T22:16:42.935Z,64.04
2022-11-03T22:19:32.553Z,61.48
2022-11-03T22:22:21.866Z,60.46
2022-11-03T22:25:10.125Z,57.30
2022-11-03T22:27:40.756Z,57.79
2022-11-03T22:30:29.410Z,59.23
2022-11-03T22:33:04.141Z,60.70
2022-11-03T22:35:57.622Z,64.14
2022-11-03T22:38:42.292Z,64.36
2022-11-03T22:41:30.231Z,61.88
2022-11-03T22:44:18.789Z,60.58
2022-11-03T22:46:49.403Z,57.06
2022-11-03T22:49:24.839Z,56.84
2022-11-03T22:52:00.093Z,58.36
2022-11-03T22:54:30.935Z,61.82
2022-11-03T22:57:01.602Z,64.40
2022-11-03T22:59:32.220Z,64.05
2022-11-03T23:02:03.022Z,62.22
2022-11-03T23:04:33.640Z,58.86
2022-11-03T23:07:04.154Z,57.29
2022-11-03T23:09:34.791Z,60.70
2022-11-03T23:12:06.039Z,62.80
2022-11-03T23:14:50.504Z,63.22
2022-11-03T23:17:41.392Z,61.54
2022-11-03T23:20:29.837Z,58.00
2022-11-03T23:23:00.593Z,58.54
2022-11-03T23:25:32.569Z,62.52
2022-11-03T23:28:03.263Z,64.35
2022-11-03T23:30:33.966Z,62.53
2022-11-03T23:33:05.363Z,60.82
2022-11-03T23:35:40.246Z,58.39
2022-11-03T23:38:11.061Z,58.72
2022-11-03T23:40:42.236Z,61.72
2022-11-03T23:43:13.820Z,65.14
2022-11-03T23:46:01.974Z,63.06
2022-11-03T23:48:51.232Z,60.47
2022-11-03T23:51:23.287Z,58.43
2022-11-03T23:53:54.257Z,59.97
2022-11-03T23:56:52.241Z,63.90
2022-11-03T23:59:22.857Z,64.71
